• Join FlightAware (Why Join?)
  • Login
  • US Flag 
11:01PM EST


 

Airport Tracker/Info


-or-


 

Live Flight TrackerFlight Track Log ✈ N129UP ✈ 15-Apr-2013 ✈ KPIE - KSDF

Flight Track Log - Related Links

Times and Time Zones

All times are in EDT time to prevent confusion due to time zone crossing. See the N129UP flight status page for this flight to view local times or setup timezone preferences in your user account.

Time Position Orientation Groundspeed Altitude Reporting Facility
EDT Latitude Longitude Course Direction KTS MPH feet Rate Location/Type
09:44PM 27.9600 -82.6840 27° Northeast 200 230 2,400  Level FlightAware
09:45PM 27.9860 -82.6720 22° Northeast 207 238 4,000 3,360 Climbing FlightAware
09:45PM 28.0100 -82.6810 342° North 218 251 5,500 3,480 Climbing FlightAware
09:46PM 28.0400 -82.6970 335° Northwest 234 269 7,200 3,300 Climbing FlightAware
09:46PM 28.0540 -82.7050 333° Northwest 236 272 8,000 3,420 Climbing FlightAware
09:46PM 28.0790 -82.7190 334° Northwest 235 270 9,500 3,120 Climbing FlightAware
09:47PM 28.1250 -82.7420 336° Northwest 247 284 11,700 2,520 Climbing FlightAware
09:48PM 28.1710 -82.7660 335° Northwest 287 330 13,100 1,680 Climbing FlightAware
09:49PM 28.2330 -82.7970 336° Northwest 352 405 14,100 1,260 Climbing FlightAware
09:49PM 28.2980 -82.8290 337° Northwest 389 448 14,900 1,920 Climbing FlightAware
09:50PM 28.3740 -82.8690 335° Northwest 410 472 16,900 2,580 Climbing FlightAware
09:51PM 28.4440 -82.9040 336° Northwest 419 482 18,600 2,460 Climbing FlightAware
09:51PM 28.5170 -82.9390 337° Northwest 420 483 20,200 2,400 Climbing FlightAware
09:52PM 28.5900 -82.9750 337° Northwest 437 503 21,800 2,280 Climbing FlightAware
09:53PM 28.6770 -83.0100 341° North 444 511 23,500 2,100 Climbing FlightAware
09:54PM 28.7670 -83.0360 346° North 445 512 25,000 1,860 Climbing FlightAware
09:54PM 28.8510 -83.0590 347° North 459 528 26,200 1,680 Climbing FlightAware
09:55PM 28.9350 -83.0820 347° North 465 535 27,300 1,920 Climbing FlightAware
09:56PM 29.0280 -83.1070 347° North 449 517 29,000 2,280 Climbing FlightAware
09:56PM 29.1110 -83.1300 346° North 447 514 30,600 2,280 Climbing FlightAware
09:57PM 29.1990 -83.1550 346° North 428 493 32,300 1,920 Climbing FlightAware
09:58PM 29.2780 -83.1770 346° North 432 497 33,400 1,260 Climbing FlightAware
09:58PM 29.3560 -83.1980 347° North 430 495 34,000 420 Climbing FlightAware
09:59PM 29.4470 -83.2240 346° North 443 510 34,000  Level FlightAware
10:00PM 29.5250 -83.2450 347° North 433 498 34,000  Level FlightAware
10:01PM 29.6130 -83.2690 347° North 427 491 34,000  Level FlightAware
10:01PM 29.6930 -83.2910 347° North 434 499 34,000  Level FlightAware
10:02PM 29.7690 -83.3130 346° North 434 499 34,000  Level FlightAware
10:03PM 29.8570 -83.3370 347° North 427 491 34,000  Level FlightAware
10:03PM 29.9290 -83.3570 346° North 428 493 34,000  Level FlightAware
10:04PM 30.0090 -83.3800 346° North 428 493 34,000  Level FlightAware
10:05PM 30.1140 -83.4090 347° North 428 493 34,000  Level FlightAware
10:06PM 30.1790 -83.4280 346° North 428 493 34,000  Level FlightAware
10:06PM 30.2970 -83.4610 346° North 432 497 34,000  Level FlightAware
10:07PM 30.3760 -83.4840 346° North 432 497 34,000  Level FlightAware
10:08PM 30.4610 -83.5070 347° North 433 498 34,000  Level FlightAware
10:09PM 30.5660 -83.5370 346° North 433 498 34,000  Level FlightAware
10:10PM 30.6820 -83.5700 346° North 433 498 34,000  Level FlightAware
10:11PM 30.7610 -83.5920 347° North 433 498 34,000  Level FlightAware
10:12PM 30.8270 -83.6120 345° North 433 498 34,000  Level FlightAware
10:12PM 31.0000 -83.6600 347° North 433 498 34,000  Level FlightAware
10:13PM 31.0700 -83.6810 346° North 433 498 34,000  Level FlightAware
10:14PM 31.0120 -83.6640 166° South 433 498 34,000  Level FlightAware
10:14PM 31.0930 -83.6880 346° North 433 498 34,000  Level FlightAware
10:15PM 31.1760 -83.7120 346° North 433 498 34,000  Level FlightAware
10:16PM 31.2420 -83.7310 346° North 433 498 34,000  Level FlightAware
10:17PM 31.3080 -83.7500 346° North 433 498 34,000  Level FlightAware
10:17PM 31.3740 -83.7690 346° North 433 498 34,000  Level FlightAware
10:18PM 31.4560 -83.7940 345° North 433 498 34,000  Level FlightAware
10:19PM 31.5230 -83.8130 346° North 433 498 34,000  Level FlightAware
10:19PM 31.5890 -83.8320 346° North 433 498 34,000  Level FlightAware
10:20PM 31.6550 -83.8520 346° North 433 498 34,000  Level FlightAware
10:21PM 31.7210 -83.8710 346° North 433 498 34,000  Level FlightAware
10:21PM 31.7870 -83.8900 346° North 433 498 34,000  Level FlightAware
10:22PM 31.8690 -83.9150 345° North 433 498 34,000  Level FlightAware
10:23PM 31.9360 -83.9340 346° North 433 498 34,000  Level FlightAware
10:24PM 32.0020 -83.9530 346° North 433 498 34,000  Level FlightAware
10:27PM 32.7350 -84.1670 346° North 435 501 34,000  Level FlightAware
10:28PM 32.8270 -84.1930 347° North 433 498 34,000  Level FlightAware
10:29PM 32.9030 -84.2160 346° North 432 497 34,000  Level FlightAware
10:29PM 32.9920 -84.2430 346° North 434 499 34,000  Level FlightAware
10:32PM 33.2660 -84.3250 346° North 434 499 34,000  Level FlightAware
10:32PM 33.3400 -84.3470 346° North 433 498 34,000  Level FlightAware
10:33PM 33.4018 -84.3662 345° North 432 497 34,000  Level FlightAware ADS-B
10:33PM 33.4613 -84.3839 346° North 431 496 34,000  Level FlightAware ADS-B
10:34PM 33.5080 -84.3980 346° North 432 497 34,000  Level FlightAware
10:34PM 33.5624 -84.4144 346° North 432 497 34,000  Level FlightAware ADS-B
10:35PM 33.6259 -84.4337 346° North 432 497 34,000  Level FlightAware ADS-B
10:35PM 33.6859 -84.4503 347° North 436 502 34,000  Level FlightAware ADS-B
10:36PM 33.7474 -84.4647 349° North 435 501 34,000  Level FlightAware ADS-B
10:36PM 33.8090 -84.4793 349° North 434 499 34,000  Level FlightAware ADS-B
10:37PM 33.8693 -84.4937 349° North 434 499 34,000  Level FlightAware ADS-B
10:37PM 33.9333 -84.5098 348° North 433 498 34,000  Level FlightAware ADS-B
10:38PM 33.9982 -84.5258 348° North 432 497 34,000  Level FlightAware ADS-B
10:38PM 34.0573 -84.5404 348° North 432 497 34,000  Level FlightAware ADS-B
10:39PM 34.1572 -84.5654 348° North 432 497 34,000  Level FlightAware ADS-B
10:41PM 34.3027 -84.6017 348° North 432 497 34,000  Level FlightAware ADS-B
10:41PM 34.3671 -84.6174 349° North 435 501 34,000  Level FlightAware ADS-B
10:42PM 34.4271 -84.6327 348° North 434 499 34,000  Level FlightAware ADS-B
10:42PM 34.4868 -84.6475 348° North 433 498 34,000  Level FlightAware ADS-B
10:43PM 34.5500 -84.6633 348° North 433 498 34,000  Level FlightAware ADS-B
10:43PM 34.6090 -84.6781 348° North 433 498 34,000  Level FlightAware ADS-B
10:44PM 34.6685 -84.6934 348° North 432 497 34,000  Level FlightAware ADS-B
10:44PM 34.6914 -84.6987 349° North 434 499 34,000  Level FlightAware ADS-B
10:44PM 34.7581 -84.7068 354° North 440 506 34,000  Level FlightAware ADS-B
10:45PM 34.8300 -84.7127 356° North 441 507 34,000  Level FlightAware ADS-B
10:46PM 34.9170 -84.7200 356° North 434 499 34,000  Level FlightAware
10:46PM 34.9660 -84.7239 356° North 443 510 34,000  Level FlightAware ADS-B
10:47PM 35.0291 -84.7291 356° North 444 511 34,000  Level FlightAware ADS-B
10:47PM 35.0953 -84.7346 356° North 446 513 34,000  Level FlightAware ADS-B
10:48PM 35.1574 -84.7397 356° North 447 514 34,000  Level FlightAware ADS-B
10:48PM 35.2197 -84.7447 356° North 447 514 34,000  Level FlightAware ADS-B
10:49PM 35.2825 -84.7500 356° North 448 516 34,000  Level FlightAware ADS-B
10:49PM 35.3450 -84.7552 356° North 449 517 34,000  Level FlightAware ADS-B
10:50PM 35.4078 -84.7604 356° North 451 519 34,000  Level FlightAware ADS-B
10:50PM 35.4715 -84.7655 356° North 453 521 34,000  Level FlightAware ADS-B
10:51PM 35.5350 -84.7709 356° North 453 521 34,000  Level FlightAware ADS-B
10:51PM 35.6000 -84.7763 356° North 453 521 34,000  Level FlightAware ADS-B
10:52PM 35.6686 -84.7821 356° North 453 521 34,000  Level FlightAware ADS-B
10:52PM 35.7348 -84.7876 356° North 454 522 34,000 -720 Level FlightAware ADS-B
10:53PM 35.7994 -84.7933 356° North 461 531 33,300 -1,440 Descending FlightAware ADS-B
10:53PM 35.8739 -84.7995 356° North 463 533 32,500 -1,500 Descending FlightAware ADS-B
10:54PM 35.9384 -84.8048 356° North 464 534 31,700 -1,500 Descending FlightAware ADS-B
10:54PM 36.0037 -84.8103 356° North 467 537 31,000 -1,500 Descending FlightAware ADS-B
10:55PM 36.0726 -84.8160 356° North 470 541 30,200 -1,020 Descending FlightAware ADS-B
10:55PM 36.1392 -84.8215 356° North 470 541 30,000 -240 Descending FlightAware ADS-B
10:56PM 36.2071 -84.8273 356° North 473 544 30,000  Level FlightAware ADS-B
10:56PM 36.2749 -84.8331 356° North 476 548 30,000  Level FlightAware ADS-B
10:57PM 36.3450 -84.8391 356° North 478 550 30,000  Level FlightAware ADS-B
10:57PM 36.4157 -84.8451 356° North 477 549 30,000  Level FlightAware ADS-B
10:58PM 36.5206 -84.8541 356° North 472 543 30,000 -420 Level FlightAware ADS-B
10:59PM 36.5939 -84.8601 356° North 443 510 29,500 -1,320 Descending FlightAware ADS-B
11:00PM 36.6760 -84.8673 356° North 420 483 28,400 -1,680 Descending FlightAware ADS-B
11:00PM 36.7344 -84.8724 356° North 412 474 27,500 -1,860 Descending FlightAware ADS-B
11:00PM 36.7591 -84.8742 357° North 411 473 27,100 -1,800 Descending FlightAware ADS-B
11:00PM 36.7657 -84.8743 359° North 412 474 27,000 -1,800 Descending FlightAware ADS-B
11:00PM 36.7770 -84.8731 North 415 478 26,800 -1,500 Descending FlightAware ADS-B
11:01PM 36.8351 -84.8593 11° North 406 467 26,100 -1,680 Descending FlightAware ADS-B
11:01PM 36.8895 -84.8457 11° North 394 453 25,100 -2,100 Descending FlightAware ADS-B
11:02PM 36.9431 -84.8320 12° North 389 448 24,000 -2,100 Descending FlightAware ADS-B
11:02PM 36.9960 -84.8181 12° North 383 441 23,000 -2,100 Descending FlightAware ADS-B
11:03PM 37.0490 -84.8038 12° North 379 436 21,900 -2,220 Descending FlightAware ADS-B
11:03PM 37.1009 -84.7909 11° North 371 427 20,800 -1,800 Descending FlightAware ADS-B
11:04PM 37.1545 -84.7775 11° North 360 414 20,100 -1,740 Descending FlightAware ADS-B
11:04PM 37.2046 -84.7647 12° North 359 413 19,000 -2,400 Descending FlightAware ADS-B
11:05PM 37.2561 -84.7516 11° North 350 403 17,600 -1,800 Descending FlightAware ADS-B
11:06PM 37.3069 -84.7398 10° North 336 387 17,100 -900 Descending FlightAware ADS-B
11:06PM 37.3192 -84.7387 North 330 380 17,000 120 Descending FlightAware ADS-B
11:07PM 37.3920 -84.7210 11° North 341 392 17,300 180 Climbing FlightAware
11:07PM 37.4450 -84.7100 North 341 392 17,300  Level FlightAware
11:08PM 37.4980 -84.6980 10° North 341 392 17,300  Level FlightAware
11:09PM 37.5640 -84.6830 10° North 341 392 17,300 -1,380 Level FlightAware
11:14PM 37.8300 -85.1960 303° West 275 316 10,000 -1,440 Descending FlightAware
11:14PM 37.8380 -85.2350 285° West 268 308 10,000 -360 Level FlightAware
11:14PM 37.8430 -85.2800 278° West 269 310 9,700 -660 Descending FlightAware
11:15PM 37.8470 -85.3190 277° West 267 307 9,400 -900 Descending FlightAware
11:15PM 37.8520 -85.3660 278° West 264 304 8,900 -1,140 Descending FlightAware
11:16PM 37.8570 -85.4050 279° West 262 302 8,400 -1,020 Descending FlightAware
11:16PM 37.8620 -85.4510 278° West 259 298 8,000 -900 Descending FlightAware
11:17PM 37.8670 -85.4930 279° West 254 292 7,500 -1,020 Descending FlightAware
11:17PM 37.8710 -85.5310 278° West 252 290 7,100 -1,020 Descending FlightAware
11:18PM 37.8810 -85.5730 287° West 257 296 6,600 -1,020 Descending FlightAware
11:18PM 37.9040 -85.6070 311° West 258 297 6,100 -660 Descending FlightAware
11:19PM 37.9250 -85.6360 313° West 258 297 6,000 -120 Descending FlightAware
11:19PM 37.9480 -85.6680 312° West 257 296 6,000  Level FlightAware
11:20PM 37.9690 -85.6990 311° West 259 298 6,000  Level FlightAware
11:20PM 37.9930 -85.7320 313° West 262 302 6,000  Level FlightAware
11:21PM 38.0180 -85.7680 311° West 264 304 6,000  Level FlightAware
11:21PM 38.0370 -85.7940 313° West 264 304 6,000  Level FlightAware
11:21PM 38.0680 -85.8220 325° Northwest 279 321 6,000  Level FlightAware
11:22PM 38.1010 -85.8350 343° North 281 323 6,000  Level FlightAware
11:22PM 38.1380 -85.8490 343° North 279 321 6,000  Level FlightAware
11:23PM 38.1670 -85.8590 345° North 256 295 6,000 -360 Level FlightAware
11:23PM 38.2000 -85.8700 345° North 243 280 5,700 -720 Descending FlightAware
11:24PM 38.2320 -85.8810 345° North 234 269 5,300 -1,020 Descending FlightAware
11:24PM 38.2580 -85.8900 345° North 228 262 4,800 -1,320 Descending FlightAware
11:25PM 38.2900 -85.9020 344° North 230 265 4,100 -900 Descending FlightAware
11:25PM 38.3150 -85.9110 344° North 232 267 4,000 -120 Descending FlightAware
11:26PM 38.3450 -85.9220 344° North 238 274 4,000  Level FlightAware
11:26PM 38.3540 -85.9230 355° North 245 282 4,000 -1,200 Level FlightAware
11:26PM 38.3850 -85.8980 32° Northeast 241 277 3,200 -1,140 Descending FlightAware
11:27PM 38.3920 -85.8660 74° East 210 242 3,000 -300 Descending FlightAware
11:27PM 38.3840 -85.8460 117° Southeast 175 201 3,000  Level FlightAware
11:27PM 38.3720 -85.8270 129° Southeast 167 192 3,000  Level FlightAware
11:28PM 38.3540 -85.8080 140° Southeast 167 192 3,000  Level FlightAware
11:28PM 38.3430 -85.8010 153° Southeast 162 186 3,000  Level FlightAware
11:29PM 38.3270 -85.7950 164° South 161 185 3,000 -240 Level FlightAware
11:29PM 38.3050 -85.7880 166° South 155 178 2,800 -600 Descending FlightAware
11:30PM 38.2840 -85.7810 165° South 148 170 2,400 -780 Descending FlightAware
11:30PM 38.2680 -85.7760 166° South 138 159 2,100 -660 Descending FlightAware
11:31PM 38.2510 -85.7700 165° South 114 131 1,800 -600 Descending FlightAware
11:31PM 38.2390 -85.7660 165° South 105 121 1,600 -600 Descending FlightAware
11:31PM 38.2250 -85.7610 164° South 107 123 1,300 -600 Descending FlightAware
11:32PM 38.2090 -85.7560 166° South 115 132 1,000 -600 Descending FlightAware
11:32PM 38.1940 -85.7510 165° South 119 137 700 -660 Descending FlightAware
11:33PM 38.1810 -85.7470 166° South 122 140 400 -720 Descending FlightAware